createdAt,value
2018-03-22T00:00:23.950Z,-0.60
2018-03-22T00:02:28.233Z,-0.60
2018-03-22T00:04:31.599Z,-0.60
2018-03-22T00:06:35.052Z,-0.60
2018-03-22T00:08:38.486Z,-0.60
2018-03-22T00:10:41.880Z,-0.70
2018-03-22T00:12:45.276Z,-0.70
2018-03-22T00:14:48.667Z,-0.70
2018-03-22T00:16:52.006Z,-0.70
2018-03-22T00:18:56.100Z,-0.70
2018-03-22T00:20:59.818Z,-0.80
2018-03-22T00:23:03.932Z,-0.80
2018-03-22T00:25:08.048Z,-0.80
2018-03-22T00:27:11.399Z,-0.90
2018-03-22T00:29:14.757Z,-0.90
2018-03-22T00:31:23.786Z,-0.90
2018-03-22T00:33:27.146Z,-0.90
2018-03-22T00:35:31.288Z,-1.10
2018-03-22T00:37:35.395Z,-1.20
2018-03-22T00:39:38.735Z,-1.20
2018-03-22T00:41:42.853Z,-1.20
2018-03-22T00:43:47.694Z,-1.20
2018-03-22T00:45:51.087Z,-1.20
2018-03-22T00:47:54.465Z,-1.10
2018-03-22T00:49:58.657Z,-1.30
2018-03-22T00:52:02.104Z,-1.30
2018-03-22T00:54:05.481Z,-1.30
2018-03-22T00:56:08.888Z,-1.30
2018-03-22T00:58:12.226Z,-1.30
2018-03-22T01:00:15.560Z,-1.30
2018-03-22T01:02:18.965Z,-1.30
2018-03-22T01:04:22.347Z,-1.30
2018-03-22T01:06:25.769Z,-1.30
2018-03-22T01:08:29.134Z,-1.40
2018-03-22T01:10:32.501Z,-1.40
2018-03-22T01:12:35.932Z,-1.40
2018-03-22T01:14:39.282Z,-1.40
2018-03-22T01:16:44.911Z,-1.50
2018-03-22T01:18:49.326Z,-1.50
2018-03-22T01:20:53.353Z,-1.50
2018-03-22T01:22:56.952Z,-1.50
2018-03-22T01:25:00.363Z,-1.50
2018-03-22T01:27:03.778Z,-1.50
2018-03-22T01:29:07.420Z,-1.60
2018-03-22T01:31:11.579Z,-1.60
2018-03-22T01:33:15.821Z,-1.60
2018-03-22T01:35:20.993Z,-1.60
2018-03-22T01:37:25.999Z,-1.50
2018-03-22T01:39:31.337Z,-1.60
2018-03-22T01:41:35.469Z,-1.60
2018-03-22T01:43:39.579Z,-1.60
2018-03-22T01:45:42.937Z,-1.60
2018-03-22T01:47:47.165Z,-1.60
2018-03-22T01:49:51.444Z,-1.60
2018-03-22T01:51:54.778Z,-1.60
2018-03-22T01:53:58.938Z,-1.70
2018-03-22T01:56:02.335Z,-1.70
2018-03-22T01:58:05.728Z,-1.70
2018-03-22T02:00:09.109Z,-1.80
2018-03-22T02:02:12.498Z,-1.90
2018-03-22T02:04:15.886Z,-1.90
2018-03-22T02:06:22.719Z,-2.00
2018-03-22T02:08:26.849Z,-2.00
2018-03-22T02:10:30.192Z,-2.00
2018-03-22T02:12:34.330Z,-1.90
2018-03-22T02:14:38.439Z,-1.90
2018-03-22T02:16:41.815Z,-1.90
2018-03-22T02:18:45.968Z,-1.90
2018-03-22T02:20:49.339Z,-1.90
2018-03-22T02:22:52.693Z,-1.90
2018-03-22T02:24:56.022Z,-1.90
2018-03-22T02:26:59.377Z,-1.90
2018-03-22T02:29:02.748Z,-1.80
2018-03-22T02:31:06.104Z,-1.90
2018-03-22T02:33:09.464Z,-1.80
2018-03-22T02:35:12.802Z,-1.80
2018-03-22T02:37:16.145Z,-1.80
2018-03-22T02:39:20.821Z,-1.80
2018-03-22T02:41:24.373Z,-1.80
2018-03-22T02:43:28.506Z,-1.80
2018-03-22T02:45:31.901Z,-1.90
2018-03-22T02:47:35.263Z,-1.80
2018-03-22T02:49:38.652Z,-1.80
2018-03-22T02:51:42.002Z,-1.80
2018-03-22T02:53:45.335Z,-1.90
2018-03-22T02:55:48.692Z,-2.00
2018-03-22T02:57:52.070Z,-2.00
2018-03-22T02:59:55.481Z,-2.00
2018-03-22T03:02:01.296Z,-2.10
2018-03-22T03:04:04.690Z,-2.10
2018-03-22T03:06:08.769Z,-2.10
2018-03-22T03:08:12.216Z,-2.10
2018-03-22T03:10:15.813Z,-2.00
2018-03-22T03:12:19.181Z,-2.00
2018-03-22T03:14:22.824Z,-2.00
2018-03-22T03:16:26.247Z,-2.00
2018-03-22T03:18:30.356Z,-2.00
2018-03-22T03:20:33.766Z,-2.10
2018-03-22T03:22:37.870Z,-2.00
2018-03-22T03:24:41.979Z,-2.00
2018-03-22T03:26:48.568Z,-2.00
2018-03-22T03:28:52.066Z,-2.00
2018-03-22T03:30:56.228Z,-2.00
2018-03-22T03:33:00.738Z,-2.00
2018-03-22T03:35:04.089Z,-2.00
2018-03-22T03:37:07.482Z,-2.10
2018-03-22T03:39:10.849Z,-2.10
2018-03-22T03:41:15.257Z,-2.20
2018-03-22T03:43:19.335Z,-2.30
2018-03-22T03:45:22.670Z,-2.30
2018-03-22T03:47:27.296Z,-2.20
2018-03-22T03:49:31.500Z,-2.20
2018-03-22T03:51:35.623Z,-2.20
2018-03-22T03:53:38.983Z,-2.20
2018-03-22T03:55:43.094Z,-2.20
2018-03-22T03:57:47.672Z,-2.20
2018-03-22T03:59:51.015Z,-2.20
2018-03-22T04:01:55.018Z,-2.20
2018-03-22T04:03:58.361Z,-2.10
2018-03-22T04:06:01.754Z,-2.20
2018-03-22T04:08:05.151Z,-2.30
2018-03-22T04:10:09.932Z,-2.30
2018-03-22T04:12:13.334Z,-2.40
2018-03-22T04:14:16.754Z,-2.30
2018-03-22T04:16:20.130Z,-2.30
2018-03-22T04:18:23.470Z,-2.20
2018-03-22T04:20:26.840Z,-2.30
2018-03-22T04:22:31.886Z,-2.20
2018-03-22T04:24:36.082Z,-2.20
2018-03-22T04:26:40.830Z,-2.20
2018-03-22T04:28:45.389Z,-2.10
2018-03-22T04:30:49.296Z,-2.20
2018-03-22T04:32:52.726Z,-2.10
2018-03-22T04:34:57.214Z,-2.10
2018-03-22T04:37:00.862Z,-2.10
2018-03-22T04:39:05.227Z,-2.10
2018-03-22T04:41:08.594Z,-2.00
2018-03-22T04:43:13.124Z,-2.00
2018-03-22T04:45:16.587Z,-2.10
2018-03-22T04:47:20.713Z,-2.00
2018-03-22T04:49:25.168Z,-2.00
2018-03-22T04:51:28.560Z,-2.00
2018-03-22T04:53:32.371Z,-2.00
2018-03-22T04:55:35.958Z,-2.00
2018-03-22T04:57:39.439Z,-2.00
2018-03-22T04:59:43.722Z,-2.00
2018-03-22T05:01:47.844Z,-1.90
2018-03-22T05:03:51.207Z,-1.90
2018-03-22T05:05:54.597Z,-1.90
2018-03-22T05:07:57.951Z,-1.90
2018-03-22T05:10:01.303Z,-1.90
2018-03-22T05:12:05.647Z,-2.00
2018-03-22T05:14:09.009Z,-2.00
2018-03-22T05:16:13.733Z,-2.10
2018-03-22T05:18:17.843Z,-2.10
2018-03-22T05:20:22.770Z,-2.10
2018-03-22T05:22:26.877Z,-2.10
2018-03-22T05:24:31.053Z,-2.10
2018-03-22T05:26:34.418Z,-2.10
2018-03-22T05:28:37.780Z,-2.10
2018-03-22T05:30:42.172Z,-2.00
2018-03-22T05:32:49.174Z,-2.10
2018-03-22T05:34:53.780Z,-1.90
2018-03-22T05:36:58.098Z,-1.90
2018-03-22T05:39:02.271Z,-1.80
2018-03-22T05:41:05.742Z,-1.80
2018-03-22T05:43:09.270Z,-1.80
2018-03-22T05:45:13.565Z,-1.80
2018-03-22T05:47:16.988Z,-1.80
2018-03-22T05:49:20.570Z,-1.80
2018-03-22T05:51:25.029Z,-1.70
2018-03-22T05:53:28.416Z,-1.70
2018-03-22T05:55:31.838Z,-1.70
2018-03-22T05:57:35.171Z,-1.70
2018-03-22T05:59:38.565Z,-1.70
2018-03-22T06:01:41.918Z,-1.60
2018-03-22T06:03:45.591Z,-1.60
2018-03-22T06:05:51.192Z,-1.50
2018-03-22T06:07:54.541Z,-1.50
2018-03-22T06:09:58.774Z,-1.50
2018-03-22T06:12:02.112Z,-1.40
2018-03-22T06:14:06.245Z,-1.30
2018-03-22T06:16:10.520Z,-1.40
2018-03-22T06:18:13.869Z,-1.30
2018-03-22T06:20:17.231Z,-1.30
2018-03-22T06:22:21.785Z,-1.20
2018-03-22T06:24:25.866Z,-1.20
2018-03-22T06:26:29.835Z,-1.20
2018-03-22T06:28:35.181Z,-1.10
2018-03-22T06:30:38.687Z,-1.10
2018-03-22T06:32:42.670Z,-1.10
2018-03-22T06:34:46.095Z,-1.10
2018-03-22T06:36:50.377Z,-1.00
2018-03-22T06:38:58.086Z,-1.00
2018-03-22T06:41:01.538Z,-1.00
2018-03-22T06:43:06.236Z,-1.10
2018-03-22T06:45:10.300Z,-1.10
2018-03-22T06:47:13.704Z,-1.10
2018-03-22T06:49:17.818Z,-1.00
2018-03-22T06:51:21.957Z,-1.00
2018-03-22T06:53:25.294Z,-1.00
2018-03-22T06:55:28.644Z,-1.00
2018-03-22T06:57:32.004Z,-1.00
2018-03-22T06:59:36.100Z,-0.90
2018-03-22T07:01:40.476Z,-0.90
2018-03-22T07:03:45.739Z,-0.80
2018-03-22T07:05:50.912Z,-0.70
2018-03-22T07:07:55.237Z,-0.70
2018-03-22T07:09:59.381Z,-0.60
2018-03-22T07:12:02.822Z,-0.60
2018-03-22T07:14:07.091Z,-0.60
2018-03-22T07:16:10.458Z,-0.50
2018-03-22T07:18:14.350Z,-0.50
2018-03-22T07:20:18.714Z,-0.50
2018-03-22T07:22:22.099Z,-0.40
2018-03-22T07:24:27.216Z,-0.40
2018-03-22T07:26:32.428Z,-0.30
2018-03-22T07:28:37.228Z,-0.10
2018-03-22T07:30:43.186Z,-0.10
2018-03-22T07:32:48.066Z,-0.10
2018-03-22T07:34:53.570Z,-0.10
2018-03-22T07:36:59.377Z,0.00
2018-03-22T07:39:03.053Z,0.00
2018-03-22T07:41:07.221Z,0.20
2018-03-22T07:43:17.885Z,0.30
2018-03-22T07:45:25.898Z,0.50
2018-03-22T07:47:29.272Z,0.60
2018-03-22T07:49:33.824Z,0.80
2018-03-22T07:51:37.903Z,0.80
2018-03-22T07:53:42.017Z,1.10
2018-03-22T07:55:46.133Z,1.10
2018-03-22T07:57:49.502Z,1.10
2018-03-22T07:59:52.835Z,1.30
2018-03-22T08:01:56.176Z,1.40
2018-03-22T08:03:59.573Z,1.40
2018-03-22T08:06:02.903Z,1.50
2018-03-22T08:08:06.969Z,1.60
2018-03-22T08:10:11.103Z,2.00
2018-03-22T08:12:14.523Z,2.00
2018-03-22T08:14:17.886Z,2.10
2018-03-22T08:16:22.232Z,2.10
2018-03-22T08:18:26.435Z,2.10
2018-03-22T08:20:31.125Z,2.10
2018-03-22T08:22:34.590Z,2.20
2018-03-22T08:24:39.310Z,2.00
2018-03-22T08:26:43.564Z,2.00
2018-03-22T08:28:49.756Z,2.00
2018-03-22T08:30:54.475Z,2.20
2018-03-22T08:32:59.821Z,2.10
2018-03-22T08:35:03.211Z,2.20
2018-03-22T08:37:07.792Z,2.50
2018-03-22T08:39:12.796Z,2.50
2018-03-22T08:41:17.845Z,2.50
2018-03-22T08:43:21.135Z,2.50
2018-03-22T08:45:25.996Z,2.40
2018-03-22T08:47:29.442Z,2.40
2018-03-22T08:49:32.786Z,2.40
2018-03-22T08:51:36.845Z,2.50
2018-03-22T08:53:40.239Z,2.50
2018-03-22T08:55:46.346Z,2.50
2018-03-22T08:57:51.279Z,2.60
2018-03-22T08:59:54.616Z,2.50
2018-03-22T09:01:58.233Z,2.50
2018-03-22T09:04:01.631Z,2.50
2018-03-22T09:06:05.018Z,2.60
2018-03-22T09:08:08.418Z,2.70
2018-03-22T09:10:11.733Z,2.80
2018-03-22T09:12:15.111Z,2.90
2018-03-22T09:14:18.991Z,3.00
2018-03-22T09:16:22.390Z,3.10
2018-03-22T09:18:25.764Z,3.10
2018-03-22T09:20:30.489Z,3.20
2018-03-22T09:22:34.609Z,3.30
2018-03-22T09:24:38.144Z,3.30
2018-03-22T09:26:47.209Z,3.30
2018-03-22T09:28:50.548Z,3.40
2018-03-22T09:30:53.885Z,3.40
2018-03-22T09:32:57.228Z,3.30
2018-03-22T09:35:00.592Z,3.30
2018-03-22T09:37:03.988Z,3.40
2018-03-22T09:39:08.221Z,3.30
2018-03-22T09:41:11.943Z,3.30
2018-03-22T09:43:15.293Z,3.30
2018-03-22T09:45:18.659Z,3.20
2018-03-22T09:47:22.105Z,3.20
2018-03-22T09:49:25.525Z,3.20
2018-03-22T09:51:28.891Z,3.20
2018-03-22T09:53:32.271Z,3.20
2018-03-22T09:55:35.657Z,3.10
2018-03-22T09:57:39.087Z,3.10
2018-03-22T09:59:42.422Z,3.10
2018-03-22T10:01:46.558Z,3.10
2018-03-22T10:03:50.969Z,3.00
2018-03-22T10:05:55.177Z,3.10
2018-03-22T10:08:00.237Z,3.00
2018-03-22T10:10:04.890Z,2.90
2018-03-22T10:12:09.080Z,2.80
2018-03-22T10:14:12.661Z,2.80
2018-03-22T10:16:16.097Z,2.80
2018-03-22T10:18:20.333Z,2.80
2018-03-22T10:20:24.443Z,2.70
2018-03-22T10:22:27.785Z,2.60
2018-03-22T10:24:31.987Z,2.70
2018-03-22T10:26:35.328Z,2.60
2018-03-22T10:28:39.511Z,2.70
2018-03-22T10:30:44.969Z,2.60
2018-03-22T10:32:48.291Z,2.60
2018-03-22T10:34:51.710Z,2.60
2018-03-22T10:36:55.835Z,2.70
2018-03-22T10:39:00.092Z,2.70
2018-03-22T10:41:03.435Z,2.70
2018-03-22T10:43:06.774Z,2.90
2018-03-22T10:45:10.920Z,2.90
2018-03-22T10:47:15.062Z,3.00
2018-03-22T10:49:18.455Z,3.00
2018-03-22T10:51:21.834Z,2.90
2018-03-22T10:53:25.173Z,3.00
2018-03-22T10:55:29.317Z,2.90
2018-03-22T10:57:32.663Z,2.90
2018-03-22T10:59:36.748Z,2.80
2018-03-22T11:01:45.899Z,2.80
2018-03-22T11:03:53.753Z,2.70
2018-03-22T11:05:57.138Z,2.70
2018-03-22T11:08:01.248Z,2.80
2018-03-22T11:10:04.588Z,2.80
2018-03-22T11:12:08.014Z,2.70
2018-03-22T11:14:11.376Z,2.70
2018-03-22T11:16:14.778Z,2.70
2018-03-22T11:18:19.902Z,2.70
2018-03-22T11:20:24.087Z,2.60
2018-03-22T11:22:27.440Z,2.60
2018-03-22T11:24:30.811Z,2.60
2018-03-22T11:26:36.028Z,2.60
2018-03-22T11:28:40.782Z,2.50
2018-03-22T11:30:44.350Z,2.50
2018-03-22T11:32:48.552Z,2.50
2018-03-22T11:34:52.655Z,2.50
2018-03-22T11:36:56.045Z,2.50
2018-03-22T11:39:00.114Z,2.50
2018-03-22T11:41:03.459Z,2.50
2018-03-22T11:43:06.909Z,2.50
2018-03-22T11:45:10.292Z,2.60
2018-03-22T11:47:14.542Z,2.70
2018-03-22T11:49:18.143Z,2.70
2018-03-22T11:51:21.658Z,2.70
2018-03-22T11:53:26.440Z,2.80
2018-03-22T11:55:29.918Z,2.80
2018-03-22T11:57:33.364Z,2.80
2018-03-22T11:59:37.482Z,2.80
2018-03-22T12:01:41.602Z,2.80
2018-03-22T12:03:44.977Z,2.70
2018-03-22T12:05:49.092Z,2.80
2018-03-22T12:07:52.499Z,2.80
2018-03-22T12:09:55.885Z,2.80
2018-03-22T12:11:59.406Z,2.70
2018-03-22T12:14:03.799Z,2.80
2018-03-22T12:16:07.199Z,2.70
2018-03-22T12:18:11.064Z,2.80
2018-03-22T12:20:14.662Z,2.80
2018-03-22T12:22:19.180Z,2.80
2018-03-22T12:24:24.662Z,2.80
2018-03-22T12:26:28.157Z,2.80
2018-03-22T12:28:31.660Z,2.80
2018-03-22T12:30:35.344Z,2.80
2018-03-22T12:32:38.734Z,2.80
2018-03-22T12:34:42.907Z,2.80
2018-03-22T12:36:46.372Z,2.80
2018-03-22T12:38:50.998Z,2.80
2018-03-22T12:40:54.380Z,2.80
2018-03-22T12:42:57.762Z,2.90
2018-03-22T12:45:04.012Z,2.90
2018-03-22T12:47:07.968Z,2.80
2018-03-22T12:49:12.460Z,2.80
2018-03-22T12:51:15.976Z,2.80
2018-03-22T12:53:20.164Z,2.70
2018-03-22T12:55:23.752Z,2.70
2018-03-22T12:57:27.193Z,2.60
2018-03-22T12:59:32.279Z,2.70
2018-03-22T13:01:35.744Z,2.70
2018-03-22T13:03:39.446Z,2.70
2018-03-22T13:05:42.907Z,2.70
2018-03-22T13:07:46.599Z,2.70
2018-03-22T13:09:50.122Z,2.70
2018-03-22T13:11:53.496Z,2.70
2018-03-22T13:13:56.922Z,2.80
2018-03-22T13:16:00.468Z,2.70
2018-03-22T13:18:03.885Z,2.90
2018-03-22T13:20:07.994Z,3.00
2018-03-22T13:22:11.362Z,3.00
2018-03-22T13:24:14.709Z,3.00
2018-03-22T13:26:18.120Z,3.00
2018-03-22T13:28:22.222Z,3.00
2018-03-22T13:30:27.103Z,3.00
2018-03-22T13:32:30.741Z,2.90
2018-03-22T13:34:34.102Z,2.90
2018-03-22T13:36:38.238Z,3.00
2018-03-22T13:38:41.605Z,2.90
2018-03-22T13:40:45.791Z,3.00
2018-03-22T13:42:50.032Z,3.00
2018-03-22T13:44:54.751Z,3.00
2018-03-22T13:46:59.375Z,2.90
2018-03-22T13:49:03.490Z,2.90
2018-03-22T13:51:06.946Z,2.90
2018-03-22T13:53:11.189Z,2.80
2018-03-22T13:55:15.047Z,2.80
2018-03-22T13:57:18.393Z,2.80
2018-03-22T13:59:22.533Z,2.80
2018-03-22T14:01:26.048Z,2.70
2018-03-22T14:03:30.807Z,2.80
2018-03-22T14:05:34.216Z,2.70
2018-03-22T14:07:38.405Z,2.70
2018-03-22T14:09:41.852Z,2.70
2018-03-22T14:11:45.214Z,2.70
2018-03-22T14:13:49.293Z,2.70
2018-03-22T14:15:52.779Z,2.70
2018-03-22T14:17:56.924Z,2.70
2018-03-22T14:20:01.084Z,2.70
2018-03-22T14:22:04.736Z,2.70
2018-03-22T14:24:08.349Z,2.70
2018-03-22T14:26:12.517Z,2.70
2018-03-22T14:28:17.454Z,2.80
2018-03-22T14:30:21.606Z,2.80
2018-03-22T14:32:24.953Z,2.80
2018-03-22T14:34:28.408Z,2.80
2018-03-22T14:36:31.764Z,2.80
2018-03-22T14:38:35.230Z,2.70
2018-03-22T14:40:39.588Z,2.80
2018-03-22T14:42:43.851Z,2.80
2018-03-22T14:44:48.074Z,2.80
2018-03-22T14:46:51.794Z,2.70
2018-03-22T14:48:55.830Z,2.80
2018-03-22T14:51:00.556Z,2.70
2018-03-22T14:53:04.205Z,2.70
2018-03-22T14:55:07.608Z,2.70
2018-03-22T14:57:11.084Z,2.70
2018-03-22T14:59:14.577Z,2.60
2018-03-22T15:01:20.485Z,2.60
2018-03-22T15:03:23.822Z,2.60
2018-03-22T15:05:27.184Z,2.60
2018-03-22T15:07:30.538Z,2.60
2018-03-22T15:09:39.487Z,2.70
2018-03-22T15:11:43.674Z,2.70
2018-03-22T15:13:47.022Z,2.60
2018-03-22T15:15:50.414Z,2.60
2018-03-22T15:17:53.772Z,2.60
2018-03-22T15:19:58.142Z,2.50
2018-03-22T15:22:01.514Z,2.50
2018-03-22T15:24:04.885Z,2.60
2018-03-22T15:26:09.400Z,2.60
2018-03-22T15:28:12.943Z,2.60
2018-03-22T15:30:16.448Z,2.60
2018-03-22T15:32:20.427Z,2.60
2018-03-22T15:34:24.586Z,2.60
2018-03-22T15:36:27.982Z,2.60
2018-03-22T15:38:31.356Z,2.60
2018-03-22T15:40:35.151Z,2.60
2018-03-22T15:42:38.540Z,2.60
2018-03-22T15:44:43.868Z,2.60
2018-03-22T15:46:47.269Z,2.60
2018-03-22T15:48:51.650Z,2.60
2018-03-22T15:50:55.011Z,2.60
2018-03-22T15:52:58.477Z,2.60
2018-03-22T15:55:02.906Z,2.70
2018-03-22T15:57:07.191Z,2.60
2018-03-22T15:59:10.558Z,2.70
2018-03-22T16:01:14.019Z,2.70
2018-03-22T16:03:17.441Z,2.60
2018-03-22T16:05:21.716Z,2.60
2018-03-22T16:07:25.123Z,2.60
2018-03-22T16:09:28.490Z,2.60
2018-03-22T16:11:31.877Z,2.70
2018-03-22T16:13:35.247Z,2.70
2018-03-22T16:15:39.474Z,2.70
2018-03-22T16:17:44.647Z,2.60
2018-03-22T16:19:48.574Z,2.60
2018-03-22T16:21:51.898Z,2.60
2018-03-22T16:23:56.028Z,2.60
2018-03-22T16:25:59.347Z,2.60
2018-03-22T16:28:02.721Z,2.60
2018-03-22T16:30:06.134Z,2.60
2018-03-22T16:32:09.475Z,2.60
2018-03-22T16:34:13.597Z,2.60
2018-03-22T16:36:16.949Z,2.50
2018-03-22T16:38:20.279Z,2.50
2018-03-22T16:40:23.671Z,2.50
2018-03-22T16:42:27.055Z,2.60
2018-03-22T16:44:31.168Z,2.50
2018-03-22T16:46:34.563Z,2.50
2018-03-22T16:48:38.132Z,2.50
2018-03-22T16:50:41.543Z,2.50
2018-03-22T16:52:45.791Z,2.60
2018-03-22T16:54:49.160Z,2.50
2018-03-22T16:56:52.488Z,2.60
2018-03-22T16:58:55.871Z,2.60
2018-03-22T17:00:59.243Z,2.50
2018-03-22T17:03:02.826Z,2.50
2018-03-22T17:05:07.022Z,2.50
2018-03-22T17:07:11.139Z,2.50
2018-03-22T17:09:15.238Z,2.50
2018-03-22T17:11:19.381Z,2.50
2018-03-22T17:13:22.721Z,2.50
2018-03-22T17:15:26.205Z,2.50
2018-03-22T17:17:29.583Z,2.50
2018-03-22T17:19:32.931Z,2.50
2018-03-22T17:21:36.300Z,2.50
2018-03-22T17:23:39.663Z,2.50
2018-03-22T17:25:43.003Z,2.40
2018-03-22T17:27:47.120Z,2.50
2018-03-22T17:29:51.209Z,2.50
2018-03-22T17:31:55.358Z,2.50
2018-03-22T17:33:58.678Z,2.50
2018-03-22T17:36:02.082Z,2.50
2018-03-22T17:38:05.444Z,2.50
2018-03-22T17:40:08.805Z,2.50
2018-03-22T17:42:12.161Z,2.50
2018-03-22T17:44:15.535Z,2.60
2018-03-22T17:46:18.888Z,2.50
2018-03-22T17:48:22.235Z,2.50
2018-03-22T17:50:25.626Z,2.50
2018-03-22T17:52:29.000Z,2.60
2018-03-22T17:54:32.512Z,2.50
2018-03-22T17:56:36.656Z,2.50
2018-03-22T17:58:40.032Z,2.50
2018-03-22T18:00:44.149Z,2.50
2018-03-22T18:02:47.568Z,2.50
2018-03-22T18:04:51.680Z,2.60
2018-03-22T18:06:55.046Z,2.60
2018-03-22T18:08:58.466Z,2.60
2018-03-22T18:11:01.842Z,2.60
2018-03-22T18:13:05.277Z,2.60
2018-03-22T18:15:08.629Z,2.60
2018-03-22T18:17:12.013Z,2.60
2018-03-22T18:19:15.457Z,2.60
2018-03-22T18:21:18.830Z,2.60
2018-03-22T18:23:22.196Z,2.60
2018-03-22T18:25:25.611Z,2.60
2018-03-22T18:27:29.058Z,2.60
2018-03-22T18:31:42.870Z,2.60
2018-03-22T18:33:46.314Z,2.60
2018-03-22T18:35:49.675Z,2.60
2018-03-22T18:37:53.107Z,2.60
2018-03-22T18:39:56.544Z,2.60
2018-03-22T18:41:59.896Z,2.50
2018-03-22T18:44:04.001Z,2.50
2018-03-22T18:46:07.377Z,2.50
2018-03-22T18:48:10.760Z,2.50
2018-03-22T18:50:14.930Z,2.60
2018-03-22T18:52:18.331Z,2.60
2018-03-22T18:54:21.728Z,2.60
2018-03-22T18:56:25.967Z,2.60
2018-03-22T18:58:30.096Z,2.60
2018-03-22T19:00:33.566Z,2.50
2018-03-22T19:02:37.705Z,2.50
2018-03-22T19:04:41.812Z,2.50
2018-03-22T19:06:45.943Z,2.60
2018-03-22T19:08:49.289Z,2.50
2018-03-22T19:10:53.168Z,2.60
2018-03-22T19:12:57.897Z,2.60
2018-03-22T19:15:03.531Z,2.60
2018-03-22T19:17:07.077Z,2.60
2018-03-22T19:19:10.966Z,2.60
2018-03-22T19:21:15.203Z,2.60
2018-03-22T19:23:18.700Z,2.60
2018-03-22T19:25:22.094Z,2.60
2018-03-22T19:27:26.510Z,2.50
2018-03-22T19:29:29.883Z,2.50
2018-03-22T19:31:34.166Z,2.50
2018-03-22T19:33:38.032Z,2.50
2018-03-22T19:35:41.472Z,2.50
2018-03-22T19:37:44.945Z,2.50
2018-03-22T19:39:48.403Z,2.50
2018-03-22T19:41:52.669Z,2.70
2018-03-22T19:43:56.036Z,2.70
2018-03-22T19:45:59.380Z,2.70
2018-03-22T19:48:03.751Z,2.70
2018-03-22T19:50:07.116Z,2.70
2018-03-22T19:52:10.456Z,2.70
2018-03-22T19:54:13.831Z,2.70
2018-03-22T19:56:17.187Z,2.70
2018-03-22T19:58:20.558Z,2.60
2018-03-22T20:00:24.664Z,2.60
2018-03-22T20:02:28.910Z,2.70
2018-03-22T20:04:32.513Z,2.70
2018-03-22T20:06:35.847Z,2.60
2018-03-22T20:08:39.229Z,2.60
2018-03-22T20:10:42.585Z,2.70
2018-03-22T20:12:47.021Z,2.60
2018-03-22T20:14:50.550Z,2.60
2018-03-22T20:16:54.688Z,2.60
2018-03-22T20:18:58.059Z,2.60
2018-03-22T20:21:01.395Z,2.60
2018-03-22T20:23:04.749Z,2.60
2018-03-22T20:25:08.881Z,2.60
2018-03-22T20:27:12.203Z,2.60
2018-03-22T20:29:15.574Z,2.70
2018-03-22T20:31:18.950Z,2.60
2018-03-22T20:33:22.287Z,2.70
2018-03-22T20:35:25.671Z,2.70
2018-03-22T20:37:29.029Z,2.70
2018-03-22T20:39:32.396Z,2.70
2018-03-22T20:41:36.510Z,2.60
2018-03-22T20:43:39.844Z,2.60
2018-03-22T20:45:43.226Z,2.60
2018-03-22T20:47:46.566Z,2.60
2018-03-22T20:49:50.686Z,2.70
2018-03-22T20:51:54.778Z,2.70
2018-03-22T20:53:58.092Z,2.70
2018-03-22T20:56:02.201Z,2.70
2018-03-22T20:58:06.310Z,2.70
2018-03-22T21:00:10.428Z,2.80
2018-03-22T21:02:13.778Z,2.80
2018-03-22T21:04:17.105Z,2.80
2018-03-22T21:06:20.430Z,2.80
2018-03-22T21:08:23.774Z,2.80
2018-03-22T21:10:30.410Z,2.80
2018-03-22T21:12:34.867Z,2.80
2018-03-22T21:14:40.365Z,2.70
2018-03-22T21:16:44.485Z,2.70
2018-03-22T21:18:47.871Z,2.70
2018-03-22T21:20:51.203Z,2.70
2018-03-22T21:22:55.312Z,2.70
2018-03-22T21:24:59.406Z,2.80
2018-03-22T21:27:03.498Z,2.80
2018-03-22T21:29:06.828Z,2.80
2018-03-22T21:31:11.009Z,2.80
2018-03-22T21:33:14.384Z,2.80
2018-03-22T21:35:17.723Z,2.80
2018-03-22T21:37:21.056Z,2.80
2018-03-22T21:39:24.387Z,2.80
2018-03-22T21:41:28.668Z,2.80
2018-03-22T21:43:32.113Z,2.80
2018-03-22T21:45:36.299Z,2.90
2018-03-22T21:47:39.638Z,2.90
2018-03-22T21:49:42.978Z,2.90
2018-03-22T21:51:58.182Z,2.90
2018-03-22T21:54:01.594Z,3.00
2018-03-22T21:56:04.917Z,2.90
2018-03-22T21:58:08.253Z,2.80
2018-03-22T22:00:11.627Z,2.70
2018-03-22T22:02:15.730Z,2.80
2018-03-22T22:04:19.075Z,2.80
2018-03-22T22:06:22.416Z,2.80
2018-03-22T22:08:26.521Z,2.70
2018-03-22T22:10:29.849Z,2.70
2018-03-22T22:12:33.193Z,2.70
2018-03-22T22:14:36.514Z,2.70
2018-03-22T22:16:40.604Z,2.70
2018-03-22T22:18:44.716Z,2.70
2018-03-22T22:20:48.835Z,2.70
2018-03-22T22:22:52.932Z,2.70
2018-03-22T22:24:57.033Z,2.80
2018-03-22T22:27:00.421Z,2.70
2018-03-22T22:29:03.735Z,2.80
2018-03-22T22:31:07.857Z,2.90
2018-03-22T22:33:11.176Z,2.90
2018-03-22T22:35:14.510Z,2.90
2018-03-22T22:37:17.868Z,2.90
2018-03-22T22:39:21.218Z,2.80
2018-03-22T22:41:24.557Z,2.80
2018-03-22T22:43:27.904Z,2.80
2018-03-22T22:45:31.227Z,2.80
2018-03-22T22:47:34.558Z,2.80
2018-03-22T22:49:37.931Z,2.80
2018-03-22T22:51:41.253Z,2.80
2018-03-22T22:53:44.639Z,2.90
2018-03-22T22:55:48.731Z,2.90
2018-03-22T22:57:53.280Z,2.90
2018-03-22T22:59:57.444Z,2.90
2018-03-22T23:02:02.426Z,3.10
2018-03-22T23:04:05.847Z,3.00
2018-03-22T23:06:09.200Z,3.00
2018-03-22T23:08:12.557Z,2.90
2018-03-22T23:10:15.915Z,2.90
2018-03-22T23:12:19.256Z,2.80
2018-03-22T23:14:22.645Z,2.80
2018-03-22T23:16:26.028Z,2.80
2018-03-22T23:18:30.342Z,2.80
2018-03-22T23:20:34.600Z,2.90
2018-03-22T23:22:38.000Z,2.80
2018-03-22T23:24:43.490Z,2.80
2018-03-22T23:26:47.821Z,2.80
2018-03-22T23:28:51.172Z,2.80
2018-03-22T23:30:54.506Z,2.80
2018-03-22T23:32:58.653Z,2.80
2018-03-22T23:35:01.962Z,2.80
2018-03-22T23:37:05.288Z,2.80
2018-03-22T23:39:08.629Z,2.80
2018-03-22T23:41:11.958Z,2.70
2018-03-22T23:43:15.293Z,2.80
2018-03-22T23:45:18.641Z,2.70
2018-03-22T23:47:21.975Z,2.80
2018-03-22T23:49:25.317Z,2.90
2018-03-22T23:51:28.661Z,2.90
2018-03-22T23:53:31.987Z,2.90
2018-03-22T23:55:35.310Z,2.80
2018-03-22T23:57:38.634Z,2.90
2018-03-22T23:59:41.985Z,2.90
